createdAt,value
2023-05-10T00:00:29.345Z,11.13
2023-05-10T00:02:56.356Z,11.87
2023-05-10T00:05:23.348Z,11.37
2023-05-10T00:07:50.336Z,9.27
2023-05-10T00:10:17.560Z,11.13
2023-05-10T00:12:44.657Z,9.50
2023-05-10T00:15:11.838Z,9.23
2023-05-10T00:17:38.879Z,9.63
2023-05-10T00:20:07.280Z,10.40
2023-05-10T00:22:34.777Z,10.87
2023-05-10T00:25:01.713Z,12.17
2023-05-10T00:27:28.649Z,13.73
2023-05-10T00:29:55.586Z,14.00
2023-05-10T00:32:22.616Z,15.03
2023-05-10T00:34:49.635Z,17.77
2023-05-10T00:37:16.828Z,15.47
2023-05-10T00:39:43.744Z,15.50
2023-05-10T00:42:11.974Z,16.47
2023-05-10T00:44:38.995Z,16.60
2023-05-10T00:47:06.922Z,16.97
2023-05-10T00:49:33.995Z,15.80
2023-05-10T00:52:02.844Z,15.43
2023-05-10T00:54:30.766Z,15.17
2023-05-10T00:56:58.261Z,17.37
2023-05-10T00:59:25.570Z,15.20
2023-05-10T01:01:54.004Z,19.10
2023-05-10T01:04:26.329Z,16.97
2023-05-10T01:06:54.680Z,20.37
2023-05-10T01:09:23.229Z,17.60
2023-05-10T01:11:50.835Z,17.40
2023-05-10T01:14:20.814Z,20.30
2023-05-10T01:16:50.240Z,21.07
2023-05-10T01:19:27.424Z,23.80
2023-05-10T01:22:20.814Z,20.40
2023-05-10T01:25:37.109Z,21.23
2023-05-10T01:28:41.457Z,18.97
2023-05-10T01:31:41.665Z,19.23
2023-05-10T01:34:17.036Z,17.30
2023-05-10T01:37:08.092Z,15.90
2023-05-10T01:40:07.753Z,16.27
2023-05-10T01:42:50.050Z,16.90
2023-05-10T01:45:33.676Z,15.80
2023-05-10T01:48:12.610Z,15.37
2023-05-10T01:50:44.642Z,14.30
2023-05-10T01:53:14.624Z,14.30
2023-05-10T01:55:49.461Z,14.73
2023-05-10T01:58:30.816Z,15.60
2023-05-10T02:01:02.488Z,14.53
2023-05-10T02:03:32.102Z,14.10
2023-05-10T02:06:00.692Z,14.10
2023-05-10T02:08:28.197Z,15.07
2023-05-10T02:10:57.851Z,15.50
2023-05-10T02:13:27.828Z,15.47
2023-05-10T02:15:56.610Z,15.77
2023-05-10T02:18:26.389Z,15.30
2023-05-10T02:20:56.231Z,15.47
2023-05-10T02:23:25.937Z,15.00
2023-05-10T02:25:56.053Z,15.53
2023-05-10T02:28:26.988Z,15.80
2023-05-10T02:30:56.156Z,16.30
2023-05-10T02:33:24.280Z,14.63
2023-05-10T02:35:54.234Z,14.37
2023-05-10T02:38:23.881Z,14.13
2023-05-10T02:40:53.331Z,13.93
2023-05-10T02:43:23.486Z,13.50
2023-05-10T02:45:50.737Z,13.73
2023-05-10T02:48:18.349Z,13.90
2023-05-10T02:50:49.529Z,13.67
2023-05-10T02:53:27.446Z,13.10
2023-05-10T02:56:02.648Z,14.57
2023-05-10T02:58:29.579Z,14.97
2023-05-10T03:00:56.583Z,13.40
2023-05-10T03:03:23.565Z,11.93
2023-05-10T03:05:51.746Z,12.67
2023-05-10T03:08:18.945Z,12.37
2023-05-10T03:11:13.585Z,14.37
2023-05-10T03:14:04.974Z,15.67
2023-05-10T03:16:50.387Z,17.37
2023-05-10T03:19:56.088Z,15.00
2023-05-10T03:22:38.057Z,17.23
2023-05-10T03:25:09.224Z,19.60
2023-05-10T03:27:40.001Z,19.43
2023-05-10T03:30:11.937Z,19.60
2023-05-10T03:32:39.667Z,20.17
2023-05-10T03:35:15.127Z,22.50
2023-05-10T03:37:42.304Z,23.37
2023-05-10T03:40:10.089Z,19.43
2023-05-10T03:42:39.448Z,17.87
2023-05-10T03:45:08.033Z,17.77
2023-05-10T03:47:34.994Z,16.83
2023-05-10T03:50:02.696Z,22.53
2023-05-10T03:52:31.102Z,18.53
2023-05-10T03:54:58.032Z,19.17
2023-05-10T03:57:25.248Z,21.30
2023-05-10T03:59:52.675Z,16.70
2023-05-10T04:02:19.648Z,16.13
2023-05-10T04:04:46.585Z,17.17
2023-05-10T04:07:13.615Z,20.63
2023-05-10T04:09:41.008Z,17.83
2023-05-10T04:12:10.771Z,19.10
2023-05-10T04:14:38.215Z,18.67
2023-05-10T04:17:05.284Z,18.80
2023-05-10T04:19:32.649Z,16.47
2023-05-10T04:22:00.244Z,16.90
2023-05-10T04:24:27.294Z,15.80
2023-05-10T04:26:57.736Z,17.20
2023-05-10T04:29:25.091Z,16.47
2023-05-10T04:31:52.047Z,15.97
2023-05-10T04:34:19.657Z,18.90
2023-05-10T04:36:46.584Z,15.00
2023-05-10T04:39:14.655Z,15.13
2023-05-10T04:41:41.618Z,14.77
2023-05-10T04:44:08.571Z,15.40
2023-05-10T04:46:35.695Z,16.40
2023-05-10T04:49:02.672Z,16.23
2023-05-10T04:51:29.684Z,15.47
2023-05-10T04:54:05.226Z,15.73
2023-05-10T04:56:34.271Z,19.20
2023-05-10T04:59:01.431Z,17.17
2023-05-10T05:01:28.464Z,17.27
2023-05-10T05:03:55.637Z,18.20
2023-05-10T05:06:22.736Z,19.67
2023-05-10T05:08:50.613Z,16.37
2023-05-10T05:11:18.706Z,17.10
2023-05-10T05:13:46.062Z,17.67
2023-05-10T05:16:13.164Z,18.10
2023-05-10T05:18:40.372Z,18.17
2023-05-10T05:21:18.338Z,21.20
2023-05-10T05:23:45.829Z,19.93
2023-05-10T05:26:13.763Z,22.57
2023-05-10T05:28:40.927Z,19.47
2023-05-10T05:31:09.000Z,21.63
2023-05-10T05:33:36.250Z,20.80
2023-05-10T05:36:05.787Z,18.83
2023-05-10T05:38:33.022Z,17.97
2023-05-10T05:41:00.138Z,17.30
2023-05-10T05:43:27.162Z,18.70
2023-05-10T05:45:58.953Z,19.30
2023-05-10T05:48:26.123Z,25.07
2023-05-10T05:50:57.465Z,20.20
2023-05-10T05:53:24.935Z,21.37
2023-05-10T05:56:00.595Z,17.27
2023-05-10T05:58:27.884Z,22.97
2023-05-10T06:00:55.062Z,17.33
2023-05-10T06:03:22.230Z,17.57
2023-05-10T06:05:49.411Z,21.80
2023-05-10T06:08:16.484Z,22.37
2023-05-10T06:10:43.609Z,16.43
2023-05-10T06:13:10.949Z,14.37
2023-05-10T06:15:38.435Z,16.80
2023-05-10T06:18:05.531Z,17.00
2023-05-10T06:20:32.725Z,12.83
2023-05-10T06:22:59.900Z,13.13
2023-05-10T06:25:27.262Z,14.60
2023-05-10T06:27:58.195Z,11.97
2023-05-10T06:30:30.380Z,11.83
2023-05-10T06:32:58.091Z,9.83
2023-05-10T06:35:25.226Z,7.30
2023-05-10T06:37:52.580Z,8.57
2023-05-10T06:40:20.254Z,6.27
2023-05-10T06:42:49.294Z,8.43
2023-05-10T06:45:17.508Z,6.73
2023-05-10T06:47:44.880Z,4.80
2023-05-10T06:50:12.670Z,5.43
2023-05-10T06:52:40.494Z,5.93
2023-05-10T06:55:09.251Z,5.50
2023-05-10T06:57:36.414Z,5.00
2023-05-10T07:00:07.398Z,4.03
2023-05-10T07:02:34.543Z,3.73
2023-05-10T07:05:03.088Z,4.47
2023-05-10T07:07:30.785Z,5.27
2023-05-10T07:09:58.647Z,4.70
2023-05-10T07:12:26.448Z,4.90
2023-05-10T07:14:53.840Z,8.10
2023-05-10T07:17:21.262Z,10.60
2023-05-10T07:19:48.519Z,6.17
2023-05-10T07:22:17.552Z,4.60
2023-05-10T07:24:44.903Z,4.53
2023-05-10T07:27:11.920Z,5.67
2023-05-10T07:29:39.159Z,3.03
2023-05-10T07:32:06.860Z,4.07
2023-05-10T07:34:33.981Z,3.83
2023-05-10T07:37:01.524Z,3.23
2023-05-10T07:39:28.813Z,6.37
2023-05-10T07:41:58.877Z,4.50
2023-05-10T07:44:26.314Z,3.63
2023-05-10T07:46:53.493Z,3.20
2023-05-10T07:49:20.996Z,3.33
2023-05-10T07:51:48.126Z,6.23
2023-05-10T07:54:15.532Z,4.77
2023-05-10T07:56:46.577Z,4.73
2023-05-10T07:59:19.238Z,5.93
2023-05-10T08:01:46.578Z,8.23
2023-05-10T08:04:13.797Z,9.33
2023-05-10T08:06:41.522Z,7.77
2023-05-10T08:09:09.434Z,13.80
2023-05-10T08:11:36.452Z,17.20
2023-05-10T08:14:03.598Z,17.30
2023-05-10T08:16:30.762Z,17.60
2023-05-10T08:18:57.964Z,20.57
2023-05-10T08:21:25.795Z,16.73
2023-05-10T08:23:52.780Z,21.57
2023-05-10T08:26:19.802Z,20.77
2023-05-10T08:28:46.820Z,22.03
2023-05-10T08:31:13.888Z,22.30
2023-05-10T08:33:43.772Z,22.57
2023-05-10T08:36:11.937Z,25.20
2023-05-10T08:38:39.187Z,23.97
2023-05-10T08:41:06.954Z,22.27
2023-05-10T08:43:36.963Z,22.53
2023-05-10T08:46:08.660Z,23.07
2023-05-10T08:48:36.724Z,22.07
2023-05-10T08:51:05.172Z,20.00
2023-05-10T08:53:36.286Z,16.57
2023-05-10T08:56:04.651Z,12.43
2023-05-10T08:58:32.129Z,11.93
2023-05-10T09:01:00.434Z,9.10
2023-05-10T09:03:27.693Z,9.70
2023-05-10T09:05:56.755Z,9.47
2023-05-10T09:08:28.333Z,8.27
2023-05-10T09:10:58.875Z,7.67
2023-05-10T09:13:26.959Z,6.70
2023-05-10T09:15:54.569Z,6.80
2023-05-10T09:18:21.700Z,5.00
2023-05-10T09:20:50.317Z,3.70
2023-05-10T09:23:17.350Z,3.90
2023-05-10T09:25:44.393Z,3.77
2023-05-10T09:28:12.262Z,2.87
2023-05-10T09:30:40.163Z,2.97
2023-05-10T09:33:07.172Z,3.17
2023-05-10T09:35:34.604Z,3.03
2023-05-10T09:38:05.996Z,5.00
2023-05-10T09:40:33.223Z,4.13
2023-05-10T09:43:12.032Z,3.67
2023-05-10T09:45:39.360Z,3.30
2023-05-10T09:48:07.515Z,3.70
2023-05-10T09:50:35.483Z,2.73
2023-05-10T09:53:04.442Z,2.53
2023-05-10T09:55:41.263Z,2.13
2023-05-10T09:58:11.638Z,2.30
2023-05-10T10:00:41.681Z,2.13
2023-05-10T10:03:16.183Z,1.97
2023-05-10T10:05:45.016Z,2.63
2023-05-10T10:08:13.505Z,2.00
2023-05-10T10:10:46.169Z,1.80
2023-05-10T10:13:14.702Z,2.00
2023-05-10T10:15:43.924Z,2.17
2023-05-10T10:18:16.292Z,2.00
2023-05-10T10:20:43.796Z,2.30
2023-05-10T10:23:10.936Z,2.50
2023-05-10T10:25:39.836Z,2.23
2023-05-10T10:28:28.337Z,2.20
2023-05-10T10:31:01.124Z,2.57
2023-05-10T10:34:00.390Z,2.70
2023-05-10T10:36:30.272Z,2.23
2023-05-10T10:39:03.757Z,2.30
2023-05-10T10:41:41.756Z,1.93
2023-05-10T10:44:26.802Z,2.13
2023-05-10T10:47:01.546Z,2.47
2023-05-10T10:49:33.411Z,1.53
2023-05-10T10:52:30.905Z,1.83
2023-05-10T10:55:19.120Z,1.63
2023-05-10T10:58:02.026Z,1.60
2023-05-10T11:00:37.454Z,1.60
2023-05-10T11:03:19.571Z,1.43
2023-05-10T11:05:52.212Z,1.87
2023-05-10T11:08:31.218Z,1.93
2023-05-10T11:11:01.093Z,1.87
2023-05-10T11:13:35.206Z,1.70
2023-05-10T11:16:26.357Z,2.40
2023-05-10T11:19:09.010Z,2.50
2023-05-10T11:21:47.760Z,1.67
2023-05-10T11:24:18.434Z,1.90
2023-05-10T11:26:46.012Z,4.03
2023-05-10T11:29:14.850Z,1.92
2023-05-10T11:31:46.376Z,1.77
2023-05-10T11:34:36.024Z,1.73
2023-05-10T11:37:03.130Z,2.05
2023-05-10T11:39:32.789Z,1.83
2023-05-10T11:42:01.016Z,2.38
2023-05-10T11:44:32.935Z,2.38
2023-05-10T11:47:03.294Z,2.67
2023-05-10T11:49:30.725Z,2.30
2023-05-10T11:52:12.001Z,1.73
2023-05-10T11:54:46.678Z,1.65
2023-05-10T11:57:13.829Z,3.15
2023-05-10T11:59:43.107Z,1.60
2023-05-10T12:02:11.389Z,1.80
2023-05-10T12:04:38.940Z,1.83
2023-05-10T12:07:06.193Z,1.50
2023-05-10T12:09:43.357Z,1.70
2023-05-10T12:12:16.450Z,2.75
2023-05-10T12:14:43.413Z,2.20
2023-05-10T12:17:14.304Z,1.90
2023-05-10T12:19:42.188Z,2.05
2023-05-10T12:22:09.172Z,2.50
2023-05-10T12:24:39.742Z,2.05
2023-05-10T12:27:09.367Z,2.35
2023-05-10T12:29:36.962Z,3.72
2023-05-10T12:32:04.077Z,2.25
2023-05-10T12:34:39.442Z,2.30
2023-05-10T12:37:06.521Z,2.38
2023-05-10T12:39:45.229Z,2.30
2023-05-10T12:42:12.618Z,3.58
2023-05-10T12:44:40.642Z,3.65
2023-05-10T12:47:08.272Z,3.45
2023-05-10T12:49:35.412Z,3.92
2023-05-10T12:52:02.686Z,4.03
2023-05-10T12:54:29.623Z,3.17
2023-05-10T12:56:56.636Z,3.58
2023-05-10T12:59:23.907Z,6.35
2023-05-10T13:01:51.065Z,4.40
2023-05-10T13:04:18.161Z,5.03
2023-05-10T13:06:45.362Z,4.20
2023-05-10T13:09:12.320Z,5.55
2023-05-10T13:11:39.358Z,4.30
2023-05-10T13:14:06.554Z,5.57
2023-05-10T13:16:34.045Z,4.78
2023-05-10T13:19:01.252Z,4.15
2023-05-10T13:21:28.826Z,3.72
2023-05-10T13:23:56.482Z,4.30
2023-05-10T13:26:23.586Z,3.53
2023-05-10T13:28:52.432Z,4.10
2023-05-10T13:31:19.536Z,3.70
2023-05-10T13:33:46.516Z,3.67
2023-05-10T13:36:13.490Z,4.45
2023-05-10T13:38:40.486Z,3.97
2023-05-10T13:41:07.640Z,3.97
2023-05-10T13:43:34.887Z,3.40
2023-05-10T13:46:03.816Z,4.43
2023-05-10T13:48:30.858Z,6.13
2023-05-10T13:50:57.896Z,3.78
2023-05-10T13:53:24.864Z,3.60
2023-05-10T13:55:51.937Z,3.65
2023-05-10T13:58:18.950Z,3.58
2023-05-10T14:00:45.962Z,3.20
2023-05-10T14:03:13.074Z,4.03
2023-05-10T14:05:40.293Z,3.45
2023-05-10T14:08:08.271Z,4.32
2023-05-10T14:10:35.313Z,3.97
2023-05-10T14:13:02.288Z,3.75
2023-05-10T14:15:29.322Z,3.47
2023-05-10T14:17:56.383Z,4.03
2023-05-10T14:20:23.512Z,4.03
2023-05-10T14:22:50.581Z,3.20
2023-05-10T14:25:17.885Z,3.75
2023-05-10T14:27:45.015Z,4.40
2023-05-10T14:30:12.870Z,4.10
2023-05-10T14:32:40.029Z,5.07
2023-05-10T14:35:07.722Z,5.13
2023-05-10T14:37:35.627Z,4.55
2023-05-10T14:40:05.350Z,4.72
2023-05-10T14:42:32.410Z,4.10
2023-05-10T14:44:59.408Z,4.40
2023-05-10T14:47:26.375Z,4.07
2023-05-10T14:49:53.311Z,4.40
2023-05-10T14:52:20.248Z,4.28
2023-05-10T14:54:47.217Z,3.13
2023-05-10T14:57:14.426Z,3.20
2023-05-10T14:59:41.404Z,3.33
2023-05-10T15:02:09.319Z,3.55
2023-05-10T15:04:36.817Z,5.18
2023-05-10T15:07:04.273Z,2.20
2023-05-10T15:09:31.406Z,2.50
2023-05-10T15:11:58.499Z,2.80
2023-05-10T15:14:25.659Z,1.90
2023-05-10T15:16:52.658Z,1.40
2023-05-10T15:19:20.858Z,1.50
2023-05-10T15:21:48.276Z,0.88
2023-05-10T15:24:15.507Z,1.40
2023-05-10T15:26:42.655Z,3.33
2023-05-10T15:29:09.674Z,2.88
2023-05-10T15:31:36.931Z,3.00
2023-05-10T15:34:04.084Z,2.83
2023-05-10T15:36:32.719Z,2.65
2023-05-10T15:38:59.692Z,2.50
2023-05-10T15:41:26.629Z,2.63
2023-05-10T15:43:54.682Z,2.97
2023-05-10T15:46:21.817Z,2.60
2023-05-10T15:48:48.826Z,3.28
2023-05-10T15:51:15.969Z,4.80
2023-05-10T15:53:56.564Z,3.57
2023-05-10T15:56:27.859Z,5.03
2023-05-10T15:58:55.211Z,5.47
2023-05-10T16:01:22.290Z,5.80
2023-05-10T16:03:49.195Z,2.93
2023-05-10T16:06:16.231Z,5.13
2023-05-10T16:08:43.337Z,3.77
2023-05-10T16:11:10.372Z,3.30
2023-05-10T16:13:37.966Z,2.97
2023-05-10T16:16:05.318Z,3.13
2023-05-10T16:18:32.551Z,2.73
2023-05-10T16:20:59.672Z,5.20
2023-05-10T16:23:27.951Z,5.40
2023-05-10T16:25:55.285Z,5.33
2023-05-10T16:28:22.292Z,4.27
2023-05-10T16:30:49.653Z,3.30
2023-05-10T16:33:16.854Z,2.53
2023-05-10T16:35:44.284Z,2.40
2023-05-10T16:38:11.403Z,2.50
2023-05-10T16:40:38.326Z,2.43
2023-05-10T16:43:05.270Z,2.00
2023-05-10T16:45:32.695Z,3.57
2023-05-10T16:47:59.905Z,4.07
2023-05-10T16:50:27.171Z,2.20
2023-05-10T16:52:54.255Z,2.03
2023-05-10T16:55:22.911Z,5.03
2023-05-10T16:57:51.182Z,2.80
2023-05-10T17:00:20.525Z,2.57
2023-05-10T17:02:47.686Z,2.23
2023-05-10T17:05:14.751Z,3.40
2023-05-10T17:07:41.753Z,4.97
2023-05-10T17:10:09.395Z,2.13
2023-05-10T17:12:36.424Z,5.90
2023-05-10T17:15:04.040Z,2.13
2023-05-10T17:17:32.802Z,1.80
2023-05-10T17:19:59.882Z,3.37
2023-05-10T17:22:26.919Z,4.13
2023-05-10T17:24:53.916Z,6.50
2023-05-10T17:27:21.050Z,3.53
2023-05-10T17:29:48.117Z,5.67
2023-05-10T17:32:15.350Z,4.10
2023-05-10T17:34:42.369Z,2.67
2023-05-10T17:37:09.526Z,4.17
2023-05-10T17:39:37.535Z,5.03
2023-05-10T17:42:06.630Z,4.77
2023-05-10T17:44:33.613Z,6.77
2023-05-10T17:47:00.639Z,2.93
2023-05-10T17:49:28.705Z,5.03
2023-05-10T17:51:55.671Z,4.40
2023-05-10T17:54:22.643Z,2.67
2023-05-10T17:56:50.329Z,2.40
2023-05-10T17:59:17.279Z,2.90
2023-05-10T18:01:44.441Z,5.93
2023-05-10T18:04:11.602Z,4.43
2023-05-10T18:06:39.155Z,3.13
2023-05-10T18:09:07.239Z,1.23
2023-05-10T18:11:36.130Z,6.17
2023-05-10T18:14:03.059Z,1.97
2023-05-10T18:16:30.205Z,3.43
2023-05-10T18:18:58.042Z,2.63
2023-05-10T18:21:25.119Z,1.13
2023-05-10T18:23:52.117Z,0.73
2023-05-10T18:26:19.119Z,0.70
2023-05-10T18:28:46.214Z,2.73
2023-05-10T18:31:13.208Z,3.63
2023-05-10T18:33:40.253Z,5.07
2023-05-10T18:36:07.485Z,1.13
2023-05-10T18:38:34.581Z,0.60
2023-05-10T18:41:01.618Z,4.87
2023-05-10T18:43:28.809Z,2.97
2023-05-10T18:45:55.825Z,2.80
2023-05-10T18:48:22.817Z,1.50
2023-05-10T18:50:49.951Z,2.13
2023-05-10T18:53:17.034Z,1.67
2023-05-10T18:55:44.835Z,0.93
2023-05-10T18:58:11.930Z,2.57
2023-05-10T19:00:39.040Z,3.07
2023-05-10T19:03:06.118Z,1.50
2023-05-10T19:05:33.122Z,1.40
2023-05-10T19:08:00.075Z,1.93
2023-05-10T19:10:27.020Z,1.23
2023-05-10T19:12:54.006Z,3.47
2023-05-10T19:15:22.038Z,1.70
2023-05-10T19:17:50.285Z,2.47
2023-05-10T19:20:17.576Z,1.83
2023-05-10T19:22:57.909Z,4.27
2023-05-10T19:25:29.608Z,4.67
2023-05-10T19:27:58.791Z,4.17
2023-05-10T19:30:26.860Z,2.43
2023-05-10T19:32:54.050Z,1.30
2023-05-10T19:35:21.052Z,4.30
2023-05-10T19:37:49.147Z,6.60
2023-05-10T19:40:17.268Z,2.13
2023-05-10T19:42:44.233Z,2.33
2023-05-10T19:45:12.221Z,2.00
2023-05-10T19:47:39.291Z,1.40
2023-05-10T19:50:07.415Z,1.57
2023-05-10T19:52:34.389Z,2.03
2023-05-10T19:55:01.403Z,4.00
2023-05-10T19:57:28.823Z,3.30
2023-05-10T19:59:55.771Z,3.10
2023-05-10T20:02:22.890Z,3.17
2023-05-10T20:04:50.058Z,1.80
2023-05-10T20:07:16.977Z,2.13
2023-05-10T20:09:44.398Z,3.83
2023-05-10T20:12:11.364Z,2.37
2023-05-10T20:14:38.761Z,3.10
2023-05-10T20:17:05.973Z,2.40
2023-05-10T20:19:33.551Z,2.77
2023-05-10T20:22:00.756Z,2.43
2023-05-10T20:24:28.681Z,4.00
2023-05-10T20:26:56.215Z,2.07
2023-05-10T20:29:23.148Z,3.73
2023-05-10T20:31:50.507Z,1.73
2023-05-10T20:34:17.702Z,3.23
2023-05-10T20:36:44.669Z,3.43
2023-05-10T20:39:11.594Z,3.13
2023-05-10T20:41:39.227Z,7.20
2023-05-10T20:44:06.342Z,2.50
2023-05-10T20:46:33.853Z,4.40
2023-05-10T20:49:00.965Z,2.77
2023-05-10T20:51:30.849Z,5.27
2023-05-10T20:53:57.965Z,2.87
2023-05-10T20:56:27.885Z,2.87
2023-05-10T20:58:55.779Z,3.67
2023-05-10T21:01:23.192Z,9.30
2023-05-10T21:03:50.259Z,5.47
2023-05-10T21:06:17.329Z,4.80
2023-05-10T21:08:44.335Z,4.37
2023-05-10T21:11:11.385Z,4.40
2023-05-10T21:13:38.399Z,6.80
2023-05-10T21:16:05.718Z,7.03
2023-05-10T21:18:32.739Z,7.03
2023-05-10T21:20:59.843Z,8.00
2023-05-10T21:23:26.763Z,9.80
2023-05-10T21:25:53.793Z,12.03
2023-05-10T21:28:20.743Z,9.03
2023-05-10T21:30:47.866Z,13.80
2023-05-10T21:33:14.912Z,10.67
2023-05-10T21:35:43.067Z,10.40
2023-05-10T21:38:10.379Z,12.47
2023-05-10T21:40:38.956Z,13.83
2023-05-10T21:43:06.585Z,11.80
2023-05-10T21:45:33.838Z,11.87
2023-05-10T21:48:00.853Z,13.03
2023-05-10T21:50:28.502Z,15.87
2023-05-10T21:52:56.554Z,12.63
2023-05-10T21:55:23.796Z,12.70
2023-05-10T21:57:51.176Z,12.83
2023-05-10T22:00:19.714Z,10.67
2023-05-10T22:02:47.048Z,9.70
2023-05-10T22:05:14.142Z,8.50
2023-05-10T22:07:41.244Z,8.83
2023-05-10T22:10:09.534Z,7.50
2023-05-10T22:12:36.685Z,7.13
2023-05-10T22:17:34.368Z,5.47
2023-05-10T22:20:01.373Z,6.23
2023-05-10T22:22:28.368Z,4.73
2023-05-10T22:24:55.320Z,5.93
2023-05-10T22:27:22.266Z,3.77
2023-05-10T22:29:49.189Z,5.53
2023-05-10T22:32:16.237Z,5.33
2023-05-10T22:34:43.169Z,5.23
2023-05-10T22:37:12.148Z,7.50
2023-05-10T22:39:39.041Z,8.07
2023-05-10T22:42:06.512Z,8.00
2023-05-10T22:44:33.460Z,8.27
2023-05-10T22:47:00.517Z,8.40
2023-05-10T22:49:27.541Z,8.97
2023-05-10T22:51:54.500Z,10.83
2023-05-10T22:54:21.444Z,10.23
2023-05-10T22:56:48.432Z,10.60
2023-05-10T22:59:15.624Z,8.97
2023-05-10T23:01:42.692Z,9.00
2023-05-10T23:04:09.632Z,10.07
2023-05-10T23:06:36.674Z,9.77
2023-05-10T23:09:03.832Z,10.07
2023-05-10T23:11:30.811Z,10.33
2023-05-10T23:13:57.851Z,12.17
2023-05-10T23:16:24.925Z,8.73
2023-05-10T23:18:52.121Z,9.40
2023-05-10T23:21:19.064Z,7.80
2023-05-10T23:23:46.140Z,7.97
2023-05-10T23:26:13.119Z,7.40
2023-05-10T23:28:40.081Z,7.20
2023-05-10T23:31:07.033Z,8.37
2023-05-10T23:33:34.020Z,6.40
2023-05-10T23:36:01.116Z,5.37
2023-05-10T23:38:28.087Z,5.50
2023-05-10T23:40:55.003Z,5.33
2023-05-10T23:43:22.041Z,4.70
2023-05-10T23:45:57.299Z,4.93
2023-05-10T23:48:24.673Z,4.60
2023-05-10T23:50:51.774Z,5.27
2023-05-10T23:53:19.041Z,4.80
2023-05-10T23:55:46.025Z,5.33
2023-05-10T23:58:12.940Z,3.60
